createdAt,value
2019-04-04T00:00:31.971Z,9.90
2019-04-04T00:03:00.551Z,9.70
2019-04-04T00:05:28.810Z,9.60
2019-04-04T00:07:58.115Z,9.40
2019-04-04T00:10:27.096Z,9.40
2019-04-04T00:12:55.372Z,9.30
2019-04-04T00:15:25.428Z,9.20
2019-04-04T00:17:54.319Z,9.00
2019-04-04T00:20:22.914Z,8.90
2019-04-04T00:22:51.037Z,8.80
2019-04-04T00:25:19.194Z,8.70
2019-04-04T00:27:47.466Z,8.70
2019-04-04T00:30:16.159Z,8.70
2019-04-04T00:32:45.886Z,8.70
2019-04-04T00:35:14.102Z,8.60
2019-04-04T00:37:42.253Z,8.60
2019-04-04T00:40:11.851Z,8.50
2019-04-04T00:42:40.263Z,8.40
2019-04-04T00:45:08.695Z,8.40
2019-04-04T00:47:38.752Z,8.30
2019-04-04T00:50:06.891Z,8.20
2019-04-04T00:52:35.475Z,8.20
2019-04-04T00:55:04.468Z,8.20
2019-04-04T00:57:32.712Z,8.20
2019-04-04T01:00:00.843Z,8.20
2019-04-04T01:02:29.048Z,8.30
2019-04-04T01:04:57.297Z,8.40
2019-04-04T01:07:25.501Z,8.40
2019-04-04T01:09:53.646Z,8.30
2019-04-04T01:12:22.349Z,8.10
2019-04-04T01:14:50.509Z,8.00
2019-04-04T01:17:18.729Z,8.00
2019-04-04T01:19:48.729Z,8.00
2019-04-04T01:22:17.395Z,8.10
2019-04-04T01:24:45.593Z,8.10
2019-04-04T01:27:13.881Z,8.10
2019-04-04T01:29:41.982Z,8.20
2019-04-04T01:32:10.217Z,8.20
2019-04-04T01:34:38.371Z,8.20
2019-04-04T01:37:06.769Z,8.20
2019-04-04T01:39:34.933Z,8.20
2019-04-04T01:42:05.078Z,8.20
2019-04-04T01:44:33.296Z,8.10
2019-04-04T01:47:01.470Z,8.10
2019-04-04T01:49:29.516Z,8.20
2019-04-04T01:51:58.018Z,8.20
2019-04-04T01:54:26.202Z,8.20
2019-04-04T01:56:54.520Z,8.10
2019-04-04T01:59:22.750Z,8.10
2019-04-04T02:01:50.939Z,8.10
2019-04-04T02:04:20.207Z,8.10
2019-04-04T02:06:48.291Z,8.20
2019-04-04T02:09:16.365Z,8.30
2019-04-04T02:11:44.536Z,8.30
2019-04-04T02:14:12.611Z,8.30
2019-04-04T02:16:40.947Z,8.30
2019-04-04T02:19:09.109Z,8.30
2019-04-04T02:21:37.492Z,8.20
2019-04-04T02:24:05.702Z,8.20
2019-04-04T02:26:35.789Z,8.30
2019-04-04T02:29:03.970Z,8.30
2019-04-04T02:31:36.154Z,8.30
2019-04-04T02:34:06.182Z,8.40
2019-04-04T02:36:34.553Z,8.30
2019-04-04T02:39:07.452Z,8.40
2019-04-04T02:41:36.109Z,8.30
2019-04-04T02:44:04.960Z,8.20
2019-04-04T02:46:33.244Z,8.20
2019-04-04T02:49:01.408Z,8.10
2019-04-04T02:51:29.510Z,8.00
2019-04-04T02:53:57.875Z,8.00
2019-04-04T02:56:26.080Z,8.10
2019-04-04T02:58:54.269Z,8.20
2019-04-04T03:01:22.366Z,8.20
2019-04-04T03:03:50.979Z,8.20
2019-04-04T03:06:21.286Z,8.20
2019-04-04T03:08:49.325Z,8.10
2019-04-04T03:11:21.274Z,8.00
2019-04-04T03:13:47.464Z,8.00
2019-04-04T03:16:15.616Z,8.00
2019-04-04T03:18:43.693Z,8.00
2019-04-04T03:21:12.017Z,8.00
2019-04-04T03:23:40.320Z,8.00
2019-04-04T03:26:08.582Z,8.00
2019-04-04T03:28:36.921Z,8.00
2019-04-04T03:31:05.266Z,8.00
2019-04-04T03:33:33.361Z,8.00
2019-04-04T03:36:01.595Z,8.00
2019-04-04T03:38:29.710Z,8.00
2019-04-04T03:40:58.805Z,8.00
2019-04-04T03:43:27.260Z,8.00
2019-04-04T03:45:57.886Z,8.00
2019-04-04T03:48:25.421Z,7.90
2019-04-04T03:50:56.762Z,7.90
2019-04-04T03:53:23.821Z,7.90
2019-04-04T03:55:51.844Z,7.90
2019-04-04T03:58:20.561Z,7.80
2019-04-04T04:00:48.654Z,7.80
2019-04-04T04:03:16.841Z,7.80
2019-04-04T04:05:45.133Z,7.80
2019-04-04T04:08:13.663Z,7.80
2019-04-04T04:10:41.700Z,7.80
2019-04-04T04:13:09.802Z,7.80
2019-04-04T04:15:37.821Z,7.80
2019-04-04T04:18:06.000Z,7.70
2019-04-04T04:20:36.573Z,7.70
2019-04-04T04:23:04.307Z,7.70
2019-04-04T04:25:35.288Z,7.70
2019-04-04T04:28:03.222Z,7.70
2019-04-04T04:30:31.521Z,7.70
2019-04-04T04:33:01.014Z,7.80
2019-04-04T04:35:29.321Z,7.80
2019-04-04T04:37:57.479Z,7.80
2019-04-04T04:40:25.710Z,7.80
2019-04-04T04:42:53.862Z,7.80
2019-04-04T04:45:24.065Z,7.80
2019-04-04T04:47:55.920Z,7.80
2019-04-04T04:50:22.347Z,7.80
2019-04-04T04:52:50.383Z,7.70
2019-04-04T04:55:18.503Z,7.80
2019-04-04T04:57:56.701Z,7.70
2019-04-04T05:00:27.792Z,7.70
2019-04-04T05:02:55.696Z,7.70
2019-04-04T05:05:23.844Z,7.70
2019-04-04T05:07:54.663Z,7.80
2019-04-04T05:10:22.081Z,7.80
2019-04-04T05:12:52.747Z,7.80
2019-04-04T05:15:21.384Z,7.80
2019-04-04T05:17:49.881Z,7.90
2019-04-04T05:20:17.962Z,7.80
2019-04-04T05:22:46.100Z,7.80
2019-04-04T05:25:14.245Z,7.90
2019-04-04T05:27:42.400Z,7.90
2019-04-04T05:30:10.711Z,7.90
2019-04-04T05:32:38.776Z,8.00
2019-04-04T05:35:06.895Z,8.10
2019-04-04T05:37:38.005Z,8.10
2019-04-04T05:40:08.590Z,8.10
2019-04-04T05:42:36.635Z,8.10
2019-04-04T05:45:05.989Z,8.00
2019-04-04T05:47:34.050Z,8.00
2019-04-04T05:50:02.593Z,8.00
2019-04-04T05:52:32.602Z,8.10
2019-04-04T05:55:00.793Z,8.00
2019-04-04T05:57:28.943Z,8.00
2019-04-04T05:59:57.083Z,8.00
2019-04-04T06:02:26.173Z,8.00
2019-04-04T06:04:55.376Z,8.00
2019-04-04T06:07:23.659Z,8.00
2019-04-04T06:09:51.862Z,8.00
2019-04-04T06:12:20.394Z,8.00
2019-04-04T06:14:49.146Z,8.00
2019-04-04T06:17:17.417Z,8.00
2019-04-04T06:19:45.644Z,8.10
2019-04-04T06:22:14.993Z,8.10
2019-04-04T06:24:43.103Z,8.20
2019-04-04T06:27:11.185Z,8.10
2019-04-04T06:29:39.325Z,8.10
2019-04-04T06:32:07.546Z,8.00
2019-04-04T06:34:35.628Z,8.00
2019-04-04T06:37:04.102Z,8.00
2019-04-04T06:39:32.238Z,7.90
2019-04-04T06:42:01.067Z,8.00
2019-04-04T06:44:30.397Z,8.00
2019-04-04T06:46:58.734Z,8.00
2019-04-04T06:49:29.058Z,8.00
2019-04-04T06:51:57.172Z,8.00
2019-04-04T06:54:25.538Z,8.00
2019-04-04T06:56:54.351Z,8.10
2019-04-04T06:59:22.420Z,8.10
2019-04-04T07:01:52.034Z,8.10
2019-04-04T07:04:20.929Z,8.10
2019-04-04T07:06:49.147Z,8.10
2019-04-04T07:09:19.126Z,8.10
2019-04-04T07:11:47.250Z,8.20
2019-04-04T07:14:15.541Z,8.20
2019-04-04T07:16:43.691Z,8.30
2019-04-04T07:19:14.136Z,8.30
2019-04-04T07:21:41.880Z,8.50
2019-04-04T07:24:10.236Z,8.50
2019-04-04T07:26:38.387Z,8.50
2019-04-04T07:29:06.725Z,8.50
2019-04-04T07:31:38.270Z,8.50
2019-04-04T07:34:06.134Z,8.50
2019-04-04T07:36:34.666Z,8.60
2019-04-04T07:39:04.072Z,8.60
2019-04-04T07:41:32.223Z,8.70
2019-04-04T07:44:00.563Z,8.60
2019-04-04T07:46:28.664Z,8.60
2019-04-04T07:48:56.893Z,8.40
2019-04-04T07:51:25.141Z,8.50
2019-04-04T07:53:53.244Z,8.60
2019-04-04T07:56:21.415Z,8.70
2019-04-04T07:58:49.566Z,8.90
2019-04-04T08:01:17.718Z,8.80
2019-04-04T08:03:45.783Z,8.70
2019-04-04T08:06:14.101Z,8.70
2019-04-04T08:08:42.268Z,8.70
2019-04-04T08:11:13.218Z,8.90
2019-04-04T08:13:40.728Z,9.00
2019-04-04T08:16:08.944Z,8.90
2019-04-04T08:18:36.994Z,8.80
2019-04-04T08:21:05.838Z,8.80
2019-04-04T08:23:34.231Z,8.80
2019-04-04T08:26:02.612Z,8.90
2019-04-04T08:28:30.945Z,8.80
2019-04-04T08:30:59.075Z,8.70
2019-04-04T08:33:27.234Z,8.60
2019-04-04T08:36:05.441Z,8.70
2019-04-04T08:38:25.752Z,8.80
2019-04-04T08:40:53.874Z,8.90
2019-04-04T08:43:23.019Z,9.00
2019-04-04T08:45:51.176Z,9.10
2019-04-04T08:48:19.374Z,9.20
2019-04-04T08:50:47.441Z,9.30
2019-04-04T08:53:15.502Z,9.40
2019-04-04T08:55:43.648Z,9.50
2019-04-04T08:58:11.685Z,9.60
2019-04-04T09:00:39.996Z,9.60
2019-04-04T09:03:08.150Z,9.50
2019-04-04T09:05:36.259Z,9.50
2019-04-04T09:08:04.513Z,9.50
2019-04-04T09:10:32.606Z,9.60
2019-04-04T09:13:00.815Z,9.50
2019-04-04T09:15:30.166Z,9.50
2019-04-04T09:17:58.375Z,9.50
2019-04-04T09:20:26.474Z,9.60
2019-04-04T09:22:54.650Z,9.60
2019-04-04T09:25:23.080Z,9.60
2019-04-04T09:27:51.277Z,9.70
2019-04-04T09:30:20.587Z,9.70
2019-04-04T09:32:49.729Z,9.70
2019-04-04T09:35:18.031Z,9.70
2019-04-04T09:37:46.114Z,9.70
2019-04-04T09:40:14.608Z,9.80
2019-04-04T09:42:42.816Z,9.80
2019-04-04T09:45:11.459Z,9.80
2019-04-04T09:47:39.695Z,9.70
2019-04-04T09:50:09.251Z,9.70
2019-04-04T09:52:37.442Z,9.90
2019-04-04T09:55:06.530Z,10.10
2019-04-04T09:57:34.656Z,10.20
2019-04-04T10:00:06.522Z,10.30
2019-04-04T10:02:34.958Z,10.20
2019-04-04T10:05:06.015Z,10.20
2019-04-04T10:07:35.139Z,10.20
2019-04-04T10:10:04.266Z,10.20
2019-04-04T10:12:32.564Z,10.10
2019-04-04T10:15:00.979Z,10.00
2019-04-04T10:17:29.120Z,10.00
2019-04-04T10:19:57.197Z,9.90
2019-04-04T10:22:27.765Z,9.90
2019-04-04T10:24:56.145Z,10.00
2019-04-04T10:27:24.958Z,10.20
2019-04-04T10:29:53.129Z,10.20
2019-04-04T10:32:21.362Z,10.30
2019-04-04T10:34:49.612Z,10.10
2019-04-04T10:37:17.707Z,10.00
2019-04-04T10:39:46.125Z,9.90
2019-04-04T10:42:14.346Z,9.90
2019-04-04T10:44:42.728Z,9.80
2019-04-04T10:47:10.960Z,9.90
2019-04-04T10:49:39.299Z,9.90
2019-04-04T10:52:07.348Z,10.00
2019-04-04T10:54:35.472Z,10.00
2019-04-04T10:57:03.743Z,10.20
2019-04-04T10:59:31.916Z,10.30
2019-04-04T11:02:00.912Z,10.30
2019-04-04T11:04:29.204Z,10.40
2019-04-04T11:06:57.273Z,10.50
2019-04-04T11:09:25.556Z,10.50
2019-04-04T11:11:53.830Z,10.50
2019-04-04T11:14:21.892Z,10.50
2019-04-04T11:16:52.113Z,10.50
2019-04-04T11:19:30.613Z,10.40
2019-04-04T11:21:50.295Z,10.40
2019-04-04T11:24:18.675Z,10.50
2019-04-04T11:26:46.754Z,10.60
2019-04-04T11:29:14.962Z,10.60
2019-04-04T11:31:43.127Z,10.60
2019-04-04T11:34:11.358Z,10.70
2019-04-04T11:36:39.661Z,10.80
2019-04-04T11:39:08.125Z,10.90
2019-04-04T11:41:36.367Z,10.90
2019-04-04T11:44:04.454Z,10.80
2019-04-04T11:46:32.514Z,10.80
2019-04-04T11:49:00.919Z,10.90
2019-04-04T11:51:29.128Z,10.90
2019-04-04T11:53:57.226Z,10.80
2019-04-04T11:56:25.531Z,10.90
2019-04-04T11:58:53.918Z,10.90
2019-04-04T12:01:23.074Z,10.90
2019-04-04T12:03:51.223Z,10.80
2019-04-04T12:06:19.334Z,10.70
2019-04-04T12:08:47.422Z,10.80
2019-04-04T12:11:15.529Z,10.70
2019-04-04T12:13:43.700Z,10.80
2019-04-04T12:16:11.895Z,10.80
2019-04-04T12:18:40.055Z,10.90
2019-04-04T12:21:08.663Z,10.90
2019-04-04T12:23:36.782Z,10.90
2019-04-04T12:26:05.024Z,11.00
2019-04-04T12:28:33.178Z,10.90
2019-04-04T12:31:01.360Z,10.90
2019-04-04T12:33:29.782Z,10.90
2019-04-04T12:35:58.593Z,10.90
2019-04-04T12:38:27.712Z,10.90
2019-04-04T12:40:55.913Z,10.90
2019-04-04T12:43:24.052Z,11.00
2019-04-04T12:45:52.127Z,11.10
2019-04-04T12:48:20.274Z,11.20
2019-04-04T12:50:48.730Z,11.20
2019-04-04T12:53:16.972Z,11.10
2019-04-04T12:55:45.175Z,11.20
2019-04-04T12:58:13.480Z,11.30
2019-04-04T13:00:41.733Z,11.20
2019-04-04T13:03:09.979Z,11.10
2019-04-04T13:05:40.288Z,11.10
2019-04-04T13:08:08.564Z,11.00
2019-04-04T13:10:36.785Z,11.10
2019-04-04T13:13:04.943Z,11.20
2019-04-04T13:15:33.087Z,11.40
2019-04-04T13:18:01.119Z,11.50
2019-04-04T13:20:29.290Z,11.50
2019-04-04T13:22:57.507Z,11.70
2019-04-04T13:25:25.722Z,11.70
2019-04-04T13:27:53.853Z,11.80
2019-04-04T13:30:22.234Z,11.80
2019-04-04T13:32:51.441Z,11.70
2019-04-04T13:35:19.444Z,11.70
2019-04-04T13:37:47.784Z,11.80
2019-04-04T13:40:17.961Z,11.90
2019-04-04T13:42:46.182Z,12.00
2019-04-04T13:45:14.418Z,11.90
2019-04-04T13:47:42.600Z,11.80
2019-04-04T13:50:12.568Z,11.70
2019-04-04T13:52:41.137Z,11.80
2019-04-04T13:55:09.957Z,11.70
2019-04-04T13:57:39.795Z,11.90
2019-04-04T14:00:09.980Z,12.10
2019-04-04T14:02:38.349Z,12.20
2019-04-04T14:05:10.195Z,12.30
2019-04-04T14:07:38.796Z,12.30
2019-04-04T14:10:07.624Z,12.30
2019-04-04T14:12:37.982Z,12.30
2019-04-04T14:15:07.796Z,12.50
2019-04-04T14:17:35.995Z,12.60
2019-04-04T14:20:05.459Z,12.80
2019-04-04T14:22:36.191Z,12.90
2019-04-04T14:25:07.742Z,12.80
2019-04-04T14:27:36.032Z,12.70
2019-04-04T14:30:06.817Z,12.70
2019-04-04T14:32:35.204Z,12.80
2019-04-04T14:35:04.290Z,12.80
2019-04-04T14:37:33.941Z,13.00
2019-04-04T14:40:02.482Z,13.00
2019-04-04T14:42:31.011Z,12.90
2019-04-04T14:44:59.918Z,13.10
2019-04-04T14:47:32.969Z,13.20
2019-04-04T14:50:00.311Z,13.20
2019-04-04T14:52:28.452Z,13.10
2019-04-04T14:54:57.069Z,13.10
2019-04-04T14:57:25.404Z,13.00
2019-04-04T14:59:53.486Z,13.00
2019-04-04T15:02:21.827Z,13.00
2019-04-04T15:04:50.131Z,13.00
2019-04-04T15:07:18.311Z,12.90
2019-04-04T15:09:46.915Z,13.00
2019-04-04T15:12:15.149Z,13.00
2019-04-04T15:14:43.333Z,13.10
2019-04-04T15:17:11.819Z,13.20
2019-04-04T15:19:40.039Z,13.30
2019-04-04T15:22:08.341Z,13.30
2019-04-04T15:24:36.539Z,13.20
2019-04-04T15:27:04.679Z,13.20
2019-04-04T15:29:32.893Z,13.20
2019-04-04T15:32:01.024Z,13.20
2019-04-04T15:34:29.168Z,13.30
2019-04-04T15:36:57.606Z,13.20
2019-04-04T15:39:26.649Z,13.20
2019-04-04T15:41:54.755Z,13.10
2019-04-04T15:44:26.058Z,13.00
2019-04-04T15:46:54.295Z,12.80
2019-04-04T15:49:22.360Z,12.90
2019-04-04T15:51:51.456Z,13.00
2019-04-04T15:54:19.575Z,13.00
2019-04-04T15:56:50.291Z,13.00
2019-04-04T15:59:18.435Z,12.80
2019-04-04T16:01:47.825Z,12.70
2019-04-04T16:04:15.915Z,12.60
2019-04-04T16:06:43.991Z,12.70
2019-04-04T16:09:12.289Z,12.70
2019-04-04T16:11:49.368Z,12.70
2019-04-04T16:14:10.542Z,12.70
2019-04-04T16:16:38.968Z,12.70
2019-04-04T16:19:07.023Z,12.60
2019-04-04T16:21:38.049Z,12.60
2019-04-04T16:24:06.109Z,12.70
2019-04-04T16:26:37.023Z,12.60
2019-04-04T16:29:05.186Z,12.60
2019-04-04T16:31:34.546Z,12.60
2019-04-04T16:34:02.882Z,12.50
2019-04-04T16:36:30.935Z,12.50
2019-04-04T16:38:59.047Z,12.50
2019-04-04T16:41:27.291Z,12.40
2019-04-04T16:43:55.399Z,12.30
2019-04-04T16:46:23.588Z,12.20
2019-04-04T16:48:53.842Z,12.10
2019-04-04T16:51:22.355Z,12.00
2019-04-04T16:53:50.950Z,11.80
2019-04-04T16:56:20.132Z,11.80
2019-04-04T16:58:48.412Z,11.60
2019-04-04T17:01:16.602Z,11.50
2019-04-04T17:03:46.167Z,11.30
2019-04-04T17:06:14.231Z,11.20
2019-04-04T17:08:42.528Z,11.20
2019-04-04T17:11:10.560Z,11.20
2019-04-04T17:13:38.711Z,11.10
2019-04-04T17:16:07.167Z,11.00
2019-04-04T17:18:36.209Z,11.00
2019-04-04T17:21:04.663Z,10.90
2019-04-04T17:23:33.899Z,10.80
2019-04-04T17:26:03.548Z,10.70
2019-04-04T17:28:31.913Z,10.70
2019-04-04T17:31:00.155Z,10.70
2019-04-04T17:33:28.789Z,10.70
2019-04-04T17:35:59.080Z,10.70
2019-04-04T17:38:27.278Z,10.70
2019-04-04T17:40:55.449Z,10.70
2019-04-04T17:43:24.266Z,10.60
2019-04-04T17:45:52.933Z,10.40
2019-04-04T17:48:21.182Z,10.40
2019-04-04T17:50:51.662Z,10.30
2019-04-04T17:53:20.279Z,10.30
2019-04-04T17:55:49.978Z,10.20
2019-04-04T17:58:19.536Z,10.10
2019-04-04T18:00:51.088Z,10.10
2019-04-04T18:03:21.089Z,10.10
2019-04-04T18:05:49.147Z,10.30
2019-04-04T18:08:17.303Z,10.10
2019-04-04T18:10:45.398Z,10.10
2019-04-04T18:13:13.618Z,10.00
2019-04-04T18:15:41.826Z,10.00
2019-04-04T18:18:10.100Z,9.90
2019-04-04T18:20:39.384Z,9.80
2019-04-04T18:23:07.706Z,9.80
2019-04-04T18:25:36.083Z,9.70
2019-04-04T18:28:04.296Z,9.70
2019-04-04T18:30:32.699Z,9.60
2019-04-04T18:33:02.386Z,9.60
2019-04-04T18:35:30.715Z,9.60
2019-04-04T18:37:59.069Z,9.60
2019-04-04T18:40:27.264Z,9.60
2019-04-04T18:42:55.487Z,9.50
2019-04-04T18:45:23.522Z,9.50
2019-04-04T18:47:51.813Z,9.50
2019-04-04T18:50:19.957Z,9.50
2019-04-04T18:52:48.598Z,9.50
2019-04-04T18:55:20.013Z,9.50
2019-04-04T18:57:48.144Z,9.50
2019-04-04T19:00:17.456Z,9.50
2019-04-04T19:02:47.762Z,9.40
2019-04-04T19:05:15.969Z,9.40
2019-04-04T19:07:44.074Z,9.40
2019-04-04T19:10:13.037Z,9.40
2019-04-04T19:12:41.257Z,9.30
2019-04-04T19:15:10.045Z,9.30
2019-04-04T19:17:38.355Z,9.20
2019-04-04T19:20:09.973Z,9.20
2019-04-04T19:22:38.310Z,9.20
2019-04-04T19:25:07.183Z,9.10
2019-04-04T19:27:35.594Z,9.10
2019-04-04T19:30:05.957Z,9.10
2019-04-04T19:32:34.187Z,9.10
2019-04-04T19:35:02.455Z,9.10
2019-04-04T19:37:30.875Z,9.10
2019-04-04T19:39:59.112Z,9.10
2019-04-04T19:42:28.687Z,9.00
2019-04-04T19:44:56.744Z,8.90
2019-04-04T19:47:24.929Z,8.90
2019-04-04T19:49:53.076Z,8.80
2019-04-04T19:52:21.186Z,8.80
2019-04-04T19:54:49.466Z,8.80
2019-04-04T19:57:17.620Z,8.80
2019-04-04T19:59:46.343Z,8.70
2019-04-04T20:02:14.427Z,8.70
2019-04-04T20:04:42.588Z,8.60
2019-04-04T20:07:10.733Z,8.60
2019-04-04T20:09:39.001Z,8.60
2019-04-04T20:12:07.143Z,8.60
2019-04-04T20:14:37.007Z,8.50
2019-04-04T20:17:05.472Z,8.50
2019-04-04T20:19:35.462Z,8.50
2019-04-04T20:22:04.035Z,8.50
2019-04-04T20:24:32.235Z,8.50
2019-04-04T20:27:00.330Z,8.50
2019-04-04T20:29:28.753Z,8.50
2019-04-04T20:31:56.823Z,8.50
2019-04-04T20:34:24.947Z,8.50
2019-04-04T20:36:53.713Z,8.50
2019-04-04T20:39:22.565Z,8.50
2019-04-04T20:41:51.645Z,8.50
2019-04-04T20:44:20.117Z,8.50
2019-04-04T20:46:48.243Z,8.50
2019-04-04T20:49:16.478Z,8.50
2019-04-04T20:51:44.573Z,8.50
2019-04-04T20:54:16.860Z,8.40
2019-04-04T20:56:45.583Z,8.50
2019-04-04T20:59:14.458Z,8.50
2019-04-04T21:01:43.193Z,8.50
2019-04-04T21:04:15.950Z,8.60
2019-04-04T21:06:45.844Z,8.50
2019-04-04T21:09:14.776Z,8.50
2019-04-04T21:11:43.640Z,8.50
2019-04-04T21:14:12.727Z,8.60
2019-04-04T21:16:41.017Z,8.50
2019-04-04T21:19:09.453Z,8.40
2019-04-04T21:21:37.716Z,8.40
2019-04-04T21:24:07.020Z,8.30
2019-04-04T21:26:36.034Z,8.30
2019-04-04T21:29:04.445Z,8.20
2019-04-04T21:31:32.611Z,8.20
2019-04-04T21:34:00.798Z,8.20
2019-04-04T21:36:29.508Z,8.20
2019-04-04T21:38:58.336Z,8.30
2019-04-04T21:41:27.225Z,8.30
2019-04-04T21:44:08.846Z,8.30
2019-04-04T21:46:30.515Z,8.30
2019-04-04T21:48:59.353Z,8.20
2019-04-04T21:51:30.336Z,8.20
2019-04-04T21:53:58.586Z,8.10
2019-04-04T21:56:26.966Z,8.10
2019-04-04T21:58:55.086Z,8.10
2019-04-04T22:01:25.413Z,8.50
2019-04-04T22:03:54.857Z,8.30
2019-04-04T22:06:27.294Z,8.20
2019-04-04T22:08:56.647Z,8.20
2019-04-04T22:11:24.828Z,8.20
2019-04-04T22:13:52.897Z,8.20
2019-04-04T22:16:21.040Z,8.20
2019-04-04T22:18:51.165Z,8.20
2019-04-04T22:21:19.619Z,8.20
2019-04-04T22:23:47.833Z,8.20
2019-04-04T22:26:16.190Z,8.30
2019-04-04T22:28:44.615Z,8.20
2019-04-04T22:31:12.779Z,8.20
2019-04-04T22:33:40.903Z,8.20
2019-04-04T22:36:09.230Z,8.10
2019-04-04T22:38:37.482Z,8.10
2019-04-04T22:41:05.732Z,8.10
2019-04-04T22:43:33.928Z,8.10
2019-04-04T22:46:05.310Z,8.00
2019-04-04T22:48:33.585Z,8.10
2019-04-04T22:51:01.809Z,8.10
2019-04-04T22:53:30.345Z,8.10
2019-04-04T22:55:58.787Z,8.10
2019-04-04T22:58:28.723Z,8.10
2019-04-04T23:00:57.178Z,8.00
2019-04-04T23:03:26.127Z,8.10
2019-04-04T23:05:54.209Z,8.20
2019-04-04T23:08:22.571Z,8.20
2019-04-04T23:10:50.998Z,8.20
2019-04-04T23:13:19.098Z,8.30
2019-04-04T23:15:47.497Z,8.30
2019-04-04T23:18:15.681Z,8.40
2019-04-04T23:20:43.952Z,8.30
2019-04-04T23:23:12.240Z,8.40
2019-04-04T23:25:40.350Z,8.40
2019-04-04T23:28:08.522Z,8.40
2019-04-04T23:30:36.798Z,8.40
2019-04-04T23:33:05.099Z,8.40
2019-04-04T23:35:33.186Z,8.40
2019-04-04T23:38:01.889Z,8.40
2019-04-04T23:40:30.127Z,8.50
2019-04-04T23:42:58.261Z,8.60
2019-04-04T23:45:26.498Z,8.60
2019-04-04T23:47:54.690Z,8.60
2019-04-04T23:50:23.016Z,8.60
2019-04-04T23:52:51.260Z,8.60
2019-04-04T23:55:20.769Z,8.60
2019-04-04T23:57:51.947Z,8.50
